sensor_id;sensor_type;location;lat;lon;timestamp;P1;durP1;ratioP1;P2;durP2;ratioP2
71462;SDS011;59266;52.608;13.260;2024-03-08T00:02:16;35.50;;;12.30;;
71462;SDS011;59266;52.608;13.260;2024-03-08T00:04:43;29.58;;;10.85;;
71462;SDS011;59266;52.608;13.260;2024-03-08T00:07:11;29.55;;;11.32;;
71462;SDS011;59266;52.608;13.260;2024-03-08T00:09:37;30.80;;;11.10;;
71462;SDS011;59266;52.608;13.260;2024-03-08T00:12:04;31.90;;;11.02;;
71462;SDS011;59266;52.608;13.260;2024-03-08T00:14:30;29.95;;;11.20;;
71462;SDS011;59266;52.608;13.260;2024-03-08T00:17:00;29.30;;;11.38;;
71462;SDS011;59266;52.608;13.260;2024-03-08T00:19:26;27.15;;;10.80;;
71462;SDS011;59266;52.608;13.260;2024-03-08T00:24:57;30.08;;;11.10;;
71462;SDS011;59266;52.608;13.260;2024-03-08T00:27:24;32.35;;;11.30;;
71462;SDS011;59266;52.608;13.260;2024-03-08T00:29:50;32.85;;;12.00;;
71462;SDS011;59266;52.608;13.260;2024-03-08T00:32:17;33.33;;;11.85;;
71462;SDS011;59266;52.608;13.260;2024-03-08T00:34:44;30.33;;;11.23;;
71462;SDS011;59266;52.608;13.260;2024-03-08T00:37:10;25.30;;;9.68;;
71462;SDS011;59266;52.608;13.260;2024-03-08T00:39:37;34.03;;;12.60;;
71462;SDS011;59266;52.608;13.260;2024-03-08T00:42:04;32.75;;;11.48;;
71462;SDS011;59266;52.608;13.260;2024-03-08T00:44:30;31.25;;;12.57;;
71462;SDS011;59266;52.608;13.260;2024-03-08T00:46:58;36.38;;;12.35;;
71462;SDS011;59266;52.608;13.260;2024-03-08T00:49:25;29.35;;;10.57;;
71462;SDS011;59266;52.608;13.260;2024-03-08T00:51:55;31.80;;;11.32;;
71462;SDS011;59266;52.608;13.260;2024-03-08T00:54:21;33.85;;;11.75;;
71462;SDS011;59266;52.608;13.260;2024-03-08T00:56:48;33.28;;;11.32;;
71462;SDS011;59266;52.608;13.260;2024-03-08T00:59:15;32.90;;;10.85;;
71462;SDS011;59266;52.608;13.260;2024-03-08T01:01:41;30.60;;;11.48;;
71462;SDS011;59266;52.608;13.260;2024-03-08T01:04:08;32.42;;;10.63;;
71462;SDS011;59266;52.608;13.260;2024-03-08T01:06:37;31.13;;;10.57;;
71462;SDS011;59266;52.608;13.260;2024-03-08T01:09:04;33.50;;;12.18;;
71462;SDS011;59266;52.608;13.260;2024-03-08T01:11:33;31.80;;;11.07;;
71462;SDS011;59266;52.608;13.260;2024-03-08T01:14:00;28.27;;;10.93;;
71462;SDS011;59266;52.608;13.260;2024-03-08T01:16:27;33.28;;;11.85;;
71462;SDS011;59266;52.608;13.260;2024-03-08T01:18:54;33.13;;;11.07;;
71462;SDS011;59266;52.608;13.260;2024-03-08T01:21:20;26.85;;;10.18;;
71462;SDS011;59266;52.608;13.260;2024-03-08T01:23:48;31.88;;;11.13;;
71462;SDS011;59266;52.608;13.260;2024-03-08T01:26:15;37.78;;;11.98;;
71462;SDS011;59266;52.608;13.260;2024-03-08T01:28:42;29.15;;;10.85;;
71462;SDS011;59266;52.608;13.260;2024-03-08T01:31:09;33.60;;;11.77;;
71462;SDS011;59266;52.608;13.260;2024-03-08T01:33:39;30.88;;;11.02;;
71462;SDS011;59266;52.608;13.260;2024-03-08T01:36:06;27.58;;;10.88;;
71462;SDS011;59266;52.608;13.260;2024-03-08T01:38:33;32.70;;;11.60;;
71462;SDS011;59266;52.608;13.260;2024-03-08T01:41:00;30.67;;;10.55;;
71462;SDS011;59266;52.608;13.260;2024-03-08T01:43:27;33.13;;;11.88;;
71462;SDS011;59266;52.608;13.260;2024-03-08T01:45:57;34.65;;;10.70;;
71462;SDS011;59266;52.608;13.260;2024-03-08T01:48:30;32.25;;;12.63;;
71462;SDS011;59266;52.608;13.260;2024-03-08T01:50:57;28.17;;;10.50;;
71462;SDS011;59266;52.608;13.260;2024-03-08T01:53:24;37.35;;;12.20;;
71462;SDS011;59266;52.608;13.260;2024-03-08T01:55:54;33.83;;;11.32;;
71462;SDS011;59266;52.608;13.260;2024-03-08T01:58:23;31.58;;;10.57;;
71462;SDS011;59266;52.608;13.260;2024-03-08T02:00:50;32.92;;;10.98;;
71462;SDS011;59266;52.608;13.260;2024-03-08T02:03:19;35.45;;;11.45;;
71462;SDS011;59266;52.608;13.260;2024-03-08T02:05:46;29.20;;;11.25;;
71462;SDS011;59266;52.608;13.260;2024-03-08T02:08:13;30.38;;;10.77;;
71462;SDS011;59266;52.608;13.260;2024-03-08T02:10:41;28.40;;;10.98;;
71462;SDS011;59266;52.608;13.260;2024-03-08T02:13:08;30.17;;;10.35;;
71462;SDS011;59266;52.608;13.260;2024-03-08T02:15:54;30.27;;;10.43;;
71462;SDS011;59266;52.608;13.260;2024-03-08T02:18:22;29.40;;;11.15;;
71462;SDS011;59266;52.608;13.260;2024-03-08T02:20:56;34.85;;;11.30;;
71462;SDS011;59266;52.608;13.260;2024-03-08T02:23:24;32.33;;;11.27;;
71462;SDS011;59266;52.608;13.260;2024-03-08T02:25:52;35.45;;;11.07;;
71462;SDS011;59266;52.608;13.260;2024-03-08T02:28:20;33.88;;;11.10;;
71462;SDS011;59266;52.608;13.260;2024-03-08T02:30:50;28.80;;;10.63;;
71462;SDS011;59266;52.608;13.260;2024-03-08T02:33:19;32.20;;;10.75;;
71462;SDS011;59266;52.608;13.260;2024-03-08T02:35:47;31.48;;;10.00;;
71462;SDS011;59266;52.608;13.260;2024-03-08T02:38:15;28.98;;;10.68;;
71462;SDS011;59266;52.608;13.260;2024-03-08T02:40:42;27.13;;;11.73;;
71462;SDS011;59266;52.608;13.260;2024-03-08T02:43:10;25.48;;;9.93;;
71462;SDS011;59266;52.608;13.260;2024-03-08T02:45:37;31.42;;;10.45;;
71462;SDS011;59266;52.608;13.260;2024-03-08T02:48:12;28.35;;;9.90;;
71462;SDS011;59266;52.608;13.260;2024-03-08T02:50:40;31.45;;;11.13;;
71462;SDS011;59266;52.608;13.260;2024-03-08T02:53:09;27.10;;;10.45;;
71462;SDS011;59266;52.608;13.260;2024-03-08T02:55:39;28.98;;;10.38;;
71462;SDS011;59266;52.608;13.260;2024-03-08T02:58:08;32.03;;;11.35;;
71462;SDS011;59266;52.608;13.260;2024-03-08T03:00:37;34.88;;;11.35;;
71462;SDS011;59266;52.608;13.260;2024-03-08T03:03:05;30.92;;;11.02;;
71462;SDS011;59266;52.608;13.260;2024-03-08T03:05:33;29.70;;;10.15;;
71462;SDS011;59266;52.608;13.260;2024-03-08T03:08:00;30.38;;;10.40;;
71462;SDS011;59266;52.608;13.260;2024-03-08T03:10:26;32.97;;;11.88;;
71462;SDS011;59266;52.608;13.260;2024-03-08T03:12:53;33.13;;;10.35;;
71462;SDS011;59266;52.608;13.260;2024-03-08T03:15:19;35.92;;;10.68;;
71462;SDS011;59266;52.608;13.260;2024-03-08T03:17:47;28.65;;;10.95;;
71462;SDS011;59266;52.608;13.260;2024-03-08T03:20:15;31.75;;;11.88;;
71462;SDS011;59266;52.608;13.260;2024-03-08T03:22:49;26.65;;;10.65;;
71462;SDS011;59266;52.608;13.260;2024-03-08T03:25:19;33.10;;;10.82;;
71462;SDS011;59266;52.608;13.260;2024-03-08T03:27:52;28.05;;;10.75;;
71462;SDS011;59266;52.608;13.260;2024-03-08T03:30:23;33.10;;;10.93;;
71462;SDS011;59266;52.608;13.260;2024-03-08T03:32:52;35.80;;;11.15;;
71462;SDS011;59266;52.608;13.260;2024-03-08T03:35:25;32.38;;;11.10;;
71462;SDS011;59266;52.608;13.260;2024-03-08T03:37:52;39.00;;;12.07;;
71462;SDS011;59266;52.608;13.260;2024-03-08T03:40:35;35.45;;;11.23;;
71462;SDS011;59266;52.608;13.260;2024-03-08T03:43:03;30.98;;;11.27;;
71462;SDS011;59266;52.608;13.260;2024-03-08T03:45:30;29.65;;;11.52;;
71462;SDS011;59266;52.608;13.260;2024-03-08T03:48:03;34.03;;;11.18;;
71462;SDS011;59266;52.608;13.260;2024-03-08T03:50:34;35.28;;;11.93;;
71462;SDS011;59266;52.608;13.260;2024-03-08T03:53:02;33.13;;;12.20;;
71462;SDS011;59266;52.608;13.260;2024-03-08T03:55:29;34.60;;;12.02;;
71462;SDS011;59266;52.608;13.260;2024-03-08T03:57:56;31.50;;;11.80;;
71462;SDS011;59266;52.608;13.260;2024-03-08T04:00:25;33.60;;;11.88;;
71462;SDS011;59266;52.608;13.260;2024-03-08T04:02:54;34.15;;;11.75;;
71462;SDS011;59266;52.608;13.260;2024-03-08T04:05:21;40.25;;;12.40;;
71462;SDS011;59266;52.608;13.260;2024-03-08T04:07:48;40.35;;;13.30;;
71462;SDS011;59266;52.608;13.260;2024-03-08T04:10:14;32.65;;;11.77;;
71462;SDS011;59266;52.608;13.260;2024-03-08T04:12:41;34.13;;;11.38;;
71462;SDS011;59266;52.608;13.260;2024-03-08T04:15:07;34.53;;;11.93;;
71462;SDS011;59266;52.608;13.260;2024-03-08T04:17:34;33.08;;;11.80;;
71462;SDS011;59266;52.608;13.260;2024-03-08T04:20:04;32.17;;;11.70;;
71462;SDS011;59266;52.608;13.260;2024-03-08T04:22:36;41.78;;;13.23;;
71462;SDS011;59266;52.608;13.260;2024-03-08T04:25:03;32.25;;;12.05;;
71462;SDS011;59266;52.608;13.260;2024-03-08T04:27:34;39.10;;;11.90;;
71462;SDS011;59266;52.608;13.260;2024-03-08T04:30:01;34.38;;;11.65;;
71462;SDS011;59266;52.608;13.260;2024-03-08T04:32:34;38.20;;;13.02;;
71462;SDS011;59266;52.608;13.260;2024-03-08T04:35:01;35.00;;;11.13;;
71462;SDS011;59266;52.608;13.260;2024-03-08T04:37:28;34.22;;;10.77;;
71462;SDS011;59266;52.608;13.260;2024-03-08T04:39:56;43.40;;;12.80;;
71462;SDS011;59266;52.608;13.260;2024-03-08T04:42:23;38.20;;;12.23;;
71462;SDS011;59266;52.608;13.260;2024-03-08T04:44:50;32.75;;;12.15;;
71462;SDS011;59266;52.608;13.260;2024-03-08T04:47:17;35.10;;;12.15;;
71462;SDS011;59266;52.608;13.260;2024-03-08T04:49:44;30.63;;;11.50;;
71462;SDS011;59266;52.608;13.260;2024-03-08T04:52:12;39.75;;;11.63;;
71462;SDS011;59266;52.608;13.260;2024-03-08T04:54:38;35.20;;;12.82;;
71462;SDS011;59266;52.608;13.260;2024-03-08T04:57:05;36.42;;;12.35;;
71462;SDS011;59266;52.608;13.260;2024-03-08T04:59:34;36.67;;;13.27;;
71462;SDS011;59266;52.608;13.260;2024-03-08T05:02:02;36.25;;;12.13;;
71462;SDS011;59266;52.608;13.260;2024-03-08T05:04:29;42.35;;;12.73;;
71462;SDS011;59266;52.608;13.260;2024-03-08T05:06:56;34.40;;;12.50;;
71462;SDS011;59266;52.608;13.260;2024-03-08T05:09:22;39.08;;;13.38;;
71462;SDS011;59266;52.608;13.260;2024-03-08T05:11:50;38.72;;;12.77;;
71462;SDS011;59266;52.608;13.260;2024-03-08T05:14:16;37.50;;;13.27;;
71462;SDS011;59266;52.608;13.260;2024-03-08T05:16:44;42.25;;;13.65;;
71462;SDS011;59266;52.608;13.260;2024-03-08T05:19:15;35.25;;;11.25;;
71462;SDS011;59266;52.608;13.260;2024-03-08T05:21:47;36.83;;;12.23;;
71462;SDS011;59266;52.608;13.260;2024-03-08T05:24:14;39.80;;;13.35;;
71462;SDS011;59266;52.608;13.260;2024-03-08T05:26:45;46.75;;;13.50;;
71462;SDS011;59266;52.608;13.260;2024-03-08T05:29:14;43.55;;;13.20;;
71462;SDS011;59266;52.608;13.260;2024-03-08T05:31:46;35.90;;;14.25;;
71462;SDS011;59266;52.608;13.260;2024-03-08T05:34:18;37.38;;;12.48;;
71462;SDS011;59266;52.608;13.260;2024-03-08T05:36:48;36.15;;;14.05;;
71462;SDS011;59266;52.608;13.260;2024-03-08T05:39:18;38.15;;;14.45;;
71462;SDS011;59266;52.608;13.260;2024-03-08T05:41:46;42.75;;;13.85;;
71462;SDS011;59266;52.608;13.260;2024-03-08T05:44:13;38.03;;;12.75;;
71462;SDS011;59266;52.608;13.260;2024-03-08T05:46:40;39.50;;;13.30;;
71462;SDS011;59266;52.608;13.260;2024-03-08T05:49:07;47.15;;;15.43;;
71462;SDS011;59266;52.608;13.260;2024-03-08T05:51:38;42.05;;;13.95;;
71462;SDS011;59266;52.608;13.260;2024-03-08T05:54:06;42.20;;;13.77;;
71462;SDS011;59266;52.608;13.260;2024-03-08T05:56:38;36.35;;;13.27;;
71462;SDS011;59266;52.608;13.260;2024-03-08T05:59:14;35.45;;;12.57;;
71462;SDS011;59266;52.608;13.260;2024-03-08T06:01:41;34.42;;;13.40;;
71462;SDS011;59266;52.608;13.260;2024-03-08T06:04:09;42.92;;;13.77;;
71462;SDS011;59266;52.608;13.260;2024-03-08T06:06:38;41.00;;;14.02;;
71462;SDS011;59266;52.608;13.260;2024-03-08T06:09:06;42.17;;;14.20;;
71462;SDS011;59266;52.608;13.260;2024-03-08T06:11:38;45.50;;;13.75;;
71462;SDS011;59266;52.608;13.260;2024-03-08T06:14:09;42.25;;;14.40;;
71462;SDS011;59266;52.608;13.260;2024-03-08T06:16:35;40.08;;;14.35;;
71462;SDS011;59266;52.608;13.260;2024-03-08T06:19:02;33.70;;;13.98;;
71462;SDS011;59266;52.608;13.260;2024-03-08T06:21:32;36.55;;;13.60;;
71462;SDS011;59266;52.608;13.260;2024-03-08T06:23:59;39.47;;;14.30;;
71462;SDS011;59266;52.608;13.260;2024-03-08T06:26:27;44.65;;;14.45;;
71462;SDS011;59266;52.608;13.260;2024-03-08T06:28:56;49.70;;;14.30;;
71462;SDS011;59266;52.608;13.260;2024-03-08T06:31:27;43.60;;;14.98;;
71462;SDS011;59266;52.608;13.260;2024-03-08T06:33:53;38.35;;;13.80;;
71462;SDS011;59266;52.608;13.260;2024-03-08T06:36:24;40.00;;;14.77;;
71462;SDS011;59266;52.608;13.260;2024-03-08T06:38:54;42.95;;;14.18;;
71462;SDS011;59266;52.608;13.260;2024-03-08T06:41:25;40.63;;;13.65;;
71462;SDS011;59266;52.608;13.260;2024-03-08T06:43:53;39.97;;;13.93;;
71462;SDS011;59266;52.608;13.260;2024-03-08T06:46:26;40.55;;;13.45;;
71462;SDS011;59266;52.608;13.260;2024-03-08T06:48:53;41.10;;;13.50;;
71462;SDS011;59266;52.608;13.260;2024-03-08T06:51:25;35.67;;;12.50;;
71462;SDS011;59266;52.608;13.260;2024-03-08T06:53:52;41.47;;;13.60;;
71462;SDS011;59266;52.608;13.260;2024-03-08T06:56:21;41.95;;;14.80;;
71462;SDS011;59266;52.608;13.260;2024-03-08T06:58:49;33.40;;;12.65;;
71462;SDS011;59266;52.608;13.260;2024-03-08T07:01:16;39.28;;;13.32;;
71462;SDS011;59266;52.608;13.260;2024-03-08T07:03:46;37.72;;;13.50;;
71462;SDS011;59266;52.608;13.260;2024-03-08T07:06:14;34.60;;;13.68;;
71462;SDS011;59266;52.608;13.260;2024-03-08T07:08:42;34.75;;;13.18;;
71462;SDS011;59266;52.608;13.260;2024-03-08T07:11:08;35.03;;;13.10;;
71462;SDS011;59266;52.608;13.260;2024-03-08T07:13:35;39.90;;;14.73;;
71462;SDS011;59266;52.608;13.260;2024-03-08T07:16:05;38.03;;;14.38;;
71462;SDS011;59266;52.608;13.260;2024-03-08T07:18:31;34.00;;;13.95;;
71462;SDS011;59266;52.608;13.260;2024-03-08T07:23:45;36.67;;;14.55;;
71462;SDS011;59266;52.608;13.260;2024-03-08T07:26:27;33.25;;;13.10;;
71462;SDS011;59266;52.608;13.260;2024-03-08T07:28:57;30.80;;;13.75;;
71462;SDS011;59266;52.608;13.260;2024-03-08T07:31:25;32.80;;;14.68;;
71462;SDS011;59266;52.608;13.260;2024-03-08T07:34:11;31.27;;;13.65;;
71462;SDS011;59266;52.608;13.260;2024-03-08T07:36:38;32.05;;;14.00;;
71462;SDS011;59266;52.608;13.260;2024-03-08T07:39:04;32.42;;;14.13;;
71462;SDS011;59266;52.608;13.260;2024-03-08T07:41:38;29.15;;;14.02;;
71462;SDS011;59266;52.608;13.260;2024-03-08T07:44:06;30.85;;;14.68;;
71462;SDS011;59266;52.608;13.260;2024-03-08T07:46:33;31.23;;;14.95;;
71462;SDS011;59266;52.608;13.260;2024-03-08T07:49:00;28.83;;;13.80;;
71462;SDS011;59266;52.608;13.260;2024-03-08T07:51:27;32.47;;;15.02;;
71462;SDS011;59266;52.608;13.260;2024-03-08T07:53:54;30.33;;;14.25;;
71462;SDS011;59266;52.608;13.260;2024-03-08T07:56:24;29.08;;;14.90;;
71462;SDS011;59266;52.608;13.260;2024-03-08T07:58:54;34.38;;;15.25;;
71462;SDS011;59266;52.608;13.260;2024-03-08T08:01:21;30.10;;;15.65;;
71462;SDS011;59266;52.608;13.260;2024-03-08T08:03:48;32.15;;;15.45;;
71462;SDS011;59266;52.608;13.260;2024-03-08T08:06:17;35.08;;;16.33;;
71462;SDS011;59266;52.608;13.260;2024-03-08T08:08:45;27.42;;;14.88;;
71462;SDS011;59266;52.608;13.260;2024-03-08T08:11:12;31.10;;;15.95;;
71462;SDS011;59266;52.608;13.260;2024-03-08T08:13:39;28.48;;;15.13;;
71462;SDS011;59266;52.608;13.260;2024-03-08T08:16:05;30.63;;;16.17;;
71462;SDS011;59266;52.608;13.260;2024-03-08T08:18:32;28.90;;;15.38;;
71462;SDS011;59266;52.608;13.260;2024-03-08T08:20:59;31.08;;;16.23;;
71462;SDS011;59266;52.608;13.260;2024-03-08T08:23:38;30.55;;;15.27;;
71462;SDS011;59266;52.608;13.260;2024-03-08T08:26:04;31.40;;;16.85;;
71462;SDS011;59266;52.608;13.260;2024-03-08T08:28:33;29.20;;;16.55;;
71462;SDS011;59266;52.608;13.260;2024-03-08T08:31:00;30.85;;;16.90;;
71462;SDS011;59266;52.608;13.260;2024-03-08T08:33:26;29.67;;;15.93;;
71462;SDS011;59266;52.608;13.260;2024-03-08T08:35:53;29.05;;;16.05;;
71462;SDS011;59266;52.608;13.260;2024-03-08T08:38:20;28.20;;;15.88;;
71462;SDS011;59266;52.608;13.260;2024-03-08T08:40:47;26.42;;;15.70;;
71462;SDS011;59266;52.608;13.260;2024-03-08T08:43:14;28.35;;;15.38;;
71462;SDS011;59266;52.608;13.260;2024-03-08T08:45:40;28.77;;;16.88;;
71462;SDS011;59266;52.608;13.260;2024-03-08T08:48:09;26.90;;;15.80;;
71462;SDS011;59266;52.608;13.260;2024-03-08T08:50:39;26.73;;;16.15;;
71462;SDS011;59266;52.608;13.260;2024-03-08T08:53:07;26.48;;;15.35;;
71462;SDS011;59266;52.608;13.260;2024-03-08T08:55:34;26.77;;;15.73;;
71462;SDS011;59266;52.608;13.260;2024-03-08T08:58:02;27.30;;;15.20;;
71462;SDS011;59266;52.608;13.260;2024-03-08T09:00:29;29.30;;;15.07;;
71462;SDS011;59266;52.608;13.260;2024-03-08T09:02:57;26.60;;;14.20;;
71462;SDS011;59266;52.608;13.260;2024-03-08T09:05:24;26.67;;;14.15;;
71462;SDS011;59266;52.608;13.260;2024-03-08T09:07:52;29.58;;;14.93;;
71462;SDS011;59266;52.608;13.260;2024-03-08T09:10:19;29.02;;;14.90;;
71462;SDS011;59266;52.608;13.260;2024-03-08T09:12:54;26.95;;;13.05;;
71462;SDS011;59266;52.608;13.260;2024-03-08T09:15:21;29.52;;;14.18;;
71462;SDS011;59266;52.608;13.260;2024-03-08T09:17:48;26.60;;;13.38;;
71462;SDS011;59266;52.608;13.260;2024-03-08T09:20:16;28.05;;;15.10;;
71462;SDS011;59266;52.608;13.260;2024-03-08T09:22:44;29.73;;;14.02;;
71462;SDS011;59266;52.608;13.260;2024-03-08T09:25:11;28.92;;;13.68;;
71462;SDS011;59266;52.608;13.260;2024-03-08T09:27:37;32.40;;;13.57;;
71462;SDS011;59266;52.608;13.260;2024-03-08T09:30:06;28.80;;;14.05;;
71462;SDS011;59266;52.608;13.260;2024-03-08T09:32:34;29.83;;;14.25;;
71462;SDS011;59266;52.608;13.260;2024-03-08T09:35:01;30.02;;;13.82;;
71462;SDS011;59266;52.608;13.260;2024-03-08T09:37:28;33.08;;;15.18;;
71462;SDS011;59266;52.608;13.260;2024-03-08T09:39:54;30.77;;;13.98;;
71462;SDS011;59266;52.608;13.260;2024-03-08T09:42:21;33.83;;;13.82;;
71462;SDS011;59266;52.608;13.260;2024-03-08T09:44:48;28.60;;;15.13;;
71462;SDS011;59266;52.608;13.260;2024-03-08T09:47:15;28.95;;;14.15;;
71462;SDS011;59266;52.608;13.260;2024-03-08T09:49:42;30.88;;;14.05;;
71462;SDS011;59266;52.608;13.260;2024-03-08T09:52:10;31.30;;;14.40;;
71462;SDS011;59266;52.608;13.260;2024-03-08T09:54:39;31.58;;;14.50;;
71462;SDS011;59266;52.608;13.260;2024-03-08T09:57:06;29.52;;;14.57;;
71462;SDS011;59266;52.608;13.260;2024-03-08T09:59:36;29.15;;;14.70;;
71462;SDS011;59266;52.608;13.260;2024-03-08T10:02:03;29.95;;;15.43;;
71462;SDS011;59266;52.608;13.260;2024-03-08T10:04:31;30.85;;;16.58;;
71462;SDS011;59266;52.608;13.260;2024-03-08T10:06:59;28.85;;;14.02;;
71462;SDS011;59266;52.608;13.260;2024-03-08T10:09:30;31.60;;;16.15;;
71462;SDS011;59266;52.608;13.260;2024-03-08T10:12:00;27.77;;;14.38;;
71462;SDS011;59266;52.608;13.260;2024-03-08T10:14:27;31.15;;;14.98;;
71462;SDS011;59266;52.608;13.260;2024-03-08T10:16:54;29.42;;;15.65;;
71462;SDS011;59266;52.608;13.260;2024-03-08T10:19:26;28.75;;;15.10;;
71462;SDS011;59266;52.608;13.260;2024-03-08T10:21:59;28.33;;;14.68;;
71462;SDS011;59266;52.608;13.260;2024-03-08T10:24:26;28.95;;;13.48;;
71462;SDS011;59266;52.608;13.260;2024-03-08T10:26:53;30.15;;;15.23;;
71462;SDS011;59266;52.608;13.260;2024-03-08T10:29:24;27.55;;;14.70;;
71462;SDS011;59266;52.608;13.260;2024-03-08T10:31:51;27.40;;;14.00;;
71462;SDS011;59266;52.608;13.260;2024-03-08T10:34:21;29.40;;;14.27;;
71462;SDS011;59266;52.608;13.260;2024-03-08T10:36:50;25.80;;;13.75;;
71462;SDS011;59266;52.608;13.260;2024-03-08T10:39:23;29.25;;;12.38;;
71462;SDS011;59266;52.608;13.260;2024-03-08T10:41:58;25.85;;;13.48;;
71462;SDS011;59266;52.608;13.260;2024-03-08T10:47:01;24.25;;;13.35;;
71462;SDS011;59266;52.608;13.260;2024-03-08T10:49:35;23.80;;;12.52;;
71462;SDS011;59266;52.608;13.260;2024-03-08T10:52:21;25.50;;;12.65;;
71462;SDS011;59266;52.608;13.260;2024-03-08T10:54:51;24.77;;;12.90;;
71462;SDS011;59266;52.608;13.260;2024-03-08T10:57:20;24.20;;;12.57;;
71462;SDS011;59266;52.608;13.260;2024-03-08T10:59:50;25.85;;;12.40;;
71462;SDS011;59266;52.608;13.260;2024-03-08T11:02:20;26.02;;;12.27;;
71462;SDS011;59266;52.608;13.260;2024-03-08T11:04:50;21.15;;;11.30;;
71462;SDS011;59266;52.608;13.260;2024-03-08T11:07:17;24.90;;;11.80;;
71462;SDS011;59266;52.608;13.260;2024-03-08T11:09:49;24.38;;;11.48;;
71462;SDS011;59266;52.608;13.260;2024-03-08T11:14:47;26.10;;;12.77;;
71462;SDS011;59266;52.608;13.260;2024-03-08T11:17:22;24.15;;;11.88;;
71462;SDS011;59266;52.608;13.260;2024-03-08T11:19:58;24.60;;;12.02;;
71462;SDS011;59266;52.608;13.260;2024-03-08T11:22:32;24.45;;;11.60;;
71462;SDS011;59266;52.608;13.260;2024-03-08T11:25:03;28.00;;;12.38;;
71462;SDS011;59266;52.608;13.260;2024-03-08T11:27:36;23.00;;;11.90;;
71462;SDS011;59266;52.608;13.260;2024-03-08T11:30:07;22.48;;;11.02;;
71462;SDS011;59266;52.608;13.260;2024-03-08T11:32:44;21.67;;;11.95;;
71462;SDS011;59266;52.608;13.260;2024-03-08T11:35:22;22.63;;;12.18;;
71462;SDS011;59266;52.608;13.260;2024-03-08T11:37:51;22.40;;;12.25;;
71462;SDS011;59266;52.608;13.260;2024-03-08T11:40:21;22.45;;;11.38;;
71462;SDS011;59266;52.608;13.260;2024-03-08T11:42:49;19.67;;;10.77;;
71462;SDS011;59266;52.608;13.260;2024-03-08T11:45:18;23.52;;;11.43;;
71462;SDS011;59266;52.608;13.260;2024-03-08T11:47:48;25.63;;;11.32;;
71462;SDS011;59266;52.608;13.260;2024-03-08T11:50:20;23.77;;;12.02;;
71462;SDS011;59266;52.608;13.260;2024-03-08T11:52:53;21.67;;;10.80;;
71462;SDS011;59266;52.608;13.260;2024-03-08T11:55:27;23.60;;;11.95;;
71462;SDS011;59266;52.608;13.260;2024-03-08T11:58:02;23.25;;;11.80;;
71462;SDS011;59266;52.608;13.260;2024-03-08T12:00:29;24.80;;;11.50;;
71462;SDS011;59266;52.608;13.260;2024-03-08T12:03:05;24.40;;;12.00;;
71462;SDS011;59266;52.608;13.260;2024-03-08T12:05:33;22.15;;;11.63;;
71462;SDS011;59266;52.608;13.260;2024-03-08T12:08:00;22.58;;;12.63;;
71462;SDS011;59266;52.608;13.260;2024-03-08T12:10:31;22.50;;;11.43;;
71462;SDS011;59266;52.608;13.260;2024-03-08T12:12:58;22.88;;;11.40;;
71462;SDS011;59266;52.608;13.260;2024-03-08T12:15:32;21.60;;;10.52;;
71462;SDS011;59266;52.608;13.260;2024-03-08T12:18:00;24.52;;;11.43;;
71462;SDS011;59266;52.608;13.260;2024-03-08T12:20:28;25.50;;;11.82;;
71462;SDS011;59266;52.608;13.260;2024-03-08T12:22:59;24.75;;;10.82;;
71462;SDS011;59266;52.608;13.260;2024-03-08T12:25:35;24.13;;;11.43;;
71462;SDS011;59266;52.608;13.260;2024-03-08T12:28:09;21.60;;;11.00;;
71462;SDS011;59266;52.608;13.260;2024-03-08T12:30:43;28.27;;;12.63;;
71462;SDS011;59266;52.608;13.260;2024-03-08T12:33:15;22.23;;;11.48;;
71462;SDS011;59266;52.608;13.260;2024-03-08T12:35:49;25.45;;;11.82;;
71462;SDS011;59266;52.608;13.260;2024-03-08T12:38:21;22.02;;;10.40;;
71462;SDS011;59266;52.608;13.260;2024-03-08T12:40:57;19.65;;;10.07;;
71462;SDS011;59266;52.608;13.260;2024-03-08T12:43:25;22.90;;;11.90;;
71462;SDS011;59266;52.608;13.260;2024-03-08T12:45:52;22.05;;;10.88;;
71462;SDS011;59266;52.608;13.260;2024-03-08T12:48:20;23.77;;;11.00;;
71462;SDS011;59266;52.608;13.260;2024-03-08T12:50:48;22.58;;;11.05;;
71462;SDS011;59266;52.608;13.260;2024-03-08T12:53:17;24.42;;;11.32;;
71462;SDS011;59266;52.608;13.260;2024-03-08T12:55:44;28.30;;;11.43;;
71462;SDS011;59266;52.608;13.260;2024-03-08T12:58:11;21.30;;;10.30;;
71462;SDS011;59266;52.608;13.260;2024-03-08T13:00:37;25.58;;;11.93;;
71462;SDS011;59266;52.608;13.260;2024-03-08T13:03:12;23.15;;;10.60;;
71462;SDS011;59266;52.608;13.260;2024-03-08T13:05:39;24.90;;;10.88;;
71462;SDS011;59266;52.608;13.260;2024-03-08T13:08:10;21.42;;;10.20;;
71462;SDS011;59266;52.608;13.260;2024-03-08T13:10:40;20.92;;;9.68;;
71462;SDS011;59266;52.608;13.260;2024-03-08T13:13:10;22.17;;;9.85;;
71462;SDS011;59266;52.608;13.260;2024-03-08T13:15:40;22.58;;;10.80;;
71462;SDS011;59266;52.608;13.260;2024-03-08T13:18:06;22.35;;;9.70;;
71462;SDS011;59266;52.608;13.260;2024-03-08T13:20:41;23.17;;;10.90;;
71462;SDS011;59266;52.608;13.260;2024-03-08T13:23:13;23.05;;;10.93;;
71462;SDS011;59266;52.608;13.260;2024-03-08T13:25:41;22.92;;;11.57;;
71462;SDS011;59266;52.608;13.260;2024-03-08T13:28:08;23.08;;;10.68;;
71462;SDS011;59266;52.608;13.260;2024-03-08T13:30:38;22.85;;;10.50;;
71462;SDS011;59266;52.608;13.260;2024-03-08T13:33:05;21.02;;;10.52;;
71462;SDS011;59266;52.608;13.260;2024-03-08T13:35:34;26.05;;;10.65;;
71462;SDS011;59266;52.608;13.260;2024-03-08T13:38:01;24.75;;;10.50;;
71462;SDS011;59266;52.608;13.260;2024-03-08T13:40:31;21.45;;;10.82;;
71462;SDS011;59266;52.608;13.260;2024-03-08T13:42:58;26.35;;;12.02;;
71462;SDS011;59266;52.608;13.260;2024-03-08T13:45:27;23.30;;;12.57;;
71462;SDS011;59266;52.608;13.260;2024-03-08T13:47:54;24.42;;;11.82;;
71462;SDS011;59266;52.608;13.260;2024-03-08T13:50:24;25.95;;;12.15;;
71462;SDS011;59266;52.608;13.260;2024-03-08T13:52:52;23.33;;;11.43;;
71462;SDS011;59266;52.608;13.260;2024-03-08T13:55:22;22.50;;;10.52;;
71462;SDS011;59266;52.608;13.260;2024-03-08T13:57:49;23.58;;;11.93;;
71462;SDS011;59266;52.608;13.260;2024-03-08T14:00:17;22.33;;;11.25;;
71462;SDS011;59266;52.608;13.260;2024-03-08T14:02:49;22.88;;;11.40;;
71462;SDS011;59266;52.608;13.260;2024-03-08T14:05:15;24.45;;;12.38;;
71462;SDS011;59266;52.608;13.260;2024-03-08T14:07:44;24.73;;;12.63;;
71462;SDS011;59266;52.608;13.260;2024-03-08T14:10:17;24.55;;;11.90;;
71462;SDS011;59266;52.608;13.260;2024-03-08T14:12:49;26.23;;;11.48;;
71462;SDS011;59266;52.608;13.260;2024-03-08T14:15:21;29.15;;;12.80;;
71462;SDS011;59266;52.608;13.260;2024-03-08T14:17:55;29.30;;;13.63;;
71462;SDS011;59266;52.608;13.260;2024-03-08T14:20:31;22.58;;;12.13;;
71462;SDS011;59266;52.608;13.260;2024-03-08T14:23:00;24.77;;;11.85;;
71462;SDS011;59266;52.608;13.260;2024-03-08T14:25:28;27.55;;;11.70;;
71462;SDS011;59266;52.608;13.260;2024-03-08T14:27:56;25.30;;;12.27;;
71462;SDS011;59266;52.608;13.260;2024-03-08T14:30:31;24.73;;;11.80;;